createdAt,value
2016-06-30T00:00:38.635Z,1004.64
2016-06-30T00:01:38.620Z,1004.6
2016-06-30T00:02:38.609Z,1004.59
2016-06-30T00:03:38.595Z,1004.59
2016-06-30T00:04:38.577Z,1004.57
2016-06-30T00:05:38.559Z,1004.57
2016-06-30T00:06:38.550Z,1004.59
2016-06-30T00:07:38.528Z,1004.57
2016-06-30T00:08:38.518Z,1004.57
2016-06-30T00:09:38.498Z,1004.53
2016-06-30T00:10:38.485Z,1004.56
2016-06-30T00:11:38.475Z,1004.57
2016-06-30T00:12:38.457Z,1004.59
2016-06-30T00:13:38.442Z,1004.63
2016-06-30T00:14:38.427Z,1004.58
2016-06-30T00:15:38.420Z,1004.58
2016-06-30T00:16:38.403Z,1004.61
2016-06-30T00:17:38.392Z,1004.57
2016-06-30T00:18:38.370Z,1004.57
2016-06-30T00:19:38.359Z,1004.55
2016-06-30T00:20:38.339Z,1004.55
2016-06-30T00:21:38.323Z,1004.53
2016-06-30T00:22:38.309Z,1004.48
2016-06-30T00:23:38.290Z,1004.52
2016-06-30T00:24:38.280Z,1004.5
2016-06-30T00:25:38.269Z,1004.52
2016-06-30T00:26:38.253Z,1004.58
2016-06-30T00:27:38.233Z,1004.51
2016-06-30T00:28:38.219Z,1004.53
2016-06-30T00:29:38.210Z,1004.54
2016-06-30T00:30:38.188Z,1004.56
2016-06-30T00:31:38.180Z,1004.54
2016-06-30T00:32:38.159Z,1004.53
2016-06-30T00:33:38.144Z,1004.55
2016-06-30T00:34:38.138Z,1004.56
2016-06-30T00:35:38.121Z,1004.57
2016-06-30T00:36:38.098Z,1004.54
2016-06-30T00:37:38.087Z,1004.56
2016-06-30T00:38:38.070Z,1004.56
2016-06-30T00:39:38.055Z,1004.54
2016-06-30T00:40:38.038Z,1004.57
2016-06-30T00:41:38.027Z,1004.54
2016-06-30T00:42:38.012Z,1004.51
2016-06-30T00:43:38.000Z,1004.53
2016-06-30T00:44:37.995Z,1004.54
2016-06-30T00:45:37.973Z,1004.54
2016-06-30T00:46:37.953Z,1004.55
2016-06-30T00:47:37.935Z,1004.55
2016-06-30T00:48:37.923Z,1004.54
2016-06-30T00:49:37.903Z,1004.56
2016-06-30T00:50:37.898Z,1004.57
2016-06-30T00:51:37.883Z,1004.53
2016-06-30T00:52:37.869Z,1004.57
2016-06-30T00:53:37.850Z,1004.52
2016-06-30T00:54:37.834Z,1004.5
2016-06-30T00:55:37.818Z,1004.56
2016-06-30T00:56:37.803Z,1004.55
2016-06-30T00:57:37.791Z,1004.52
2016-06-30T00:58:37.872Z,1004.51
2016-06-30T00:59:37.764Z,1004.52
2016-06-30T01:00:37.744Z,1004.48
2016-06-30T01:01:37.727Z,1004.5
2016-06-30T01:02:37.720Z,1004.51
2016-06-30T01:03:37.709Z,1004.49
2016-06-30T01:04:37.689Z,1004.49
2016-06-30T01:05:37.673Z,1004.45
2016-06-30T01:06:37.662Z,1004.44
2016-06-30T01:07:37.648Z,1004.46
2016-06-30T01:08:37.625Z,1004.48
2016-06-30T01:09:37.614Z,1004.46
2016-06-30T01:10:37.623Z,1004.46
2016-06-30T01:11:37.584Z,1004.5
2016-06-30T01:12:37.565Z,1004.41
2016-06-30T01:13:37.561Z,1004.41
2016-06-30T01:14:37.539Z,1004.44
2016-06-30T01:15:37.522Z,1004.38
2016-06-30T01:16:37.507Z,1004.38
2016-06-30T01:17:37.498Z,1004.34
2016-06-30T01:18:37.480Z,1004.31
2016-06-30T01:19:37.464Z,1004.34
2016-06-30T01:20:37.457Z,1004.32
2016-06-30T01:21:37.443Z,1004.34
2016-06-30T01:22:37.431Z,1004.33
2016-06-30T01:23:37.405Z,1004.28
2016-06-30T01:24:37.390Z,1004.24
2016-06-30T01:25:37.376Z,1004.29
2016-06-30T01:26:37.362Z,1004.24
2016-06-30T01:27:37.351Z,1004.25
2016-06-30T01:28:37.333Z,1004.25
2016-06-30T01:29:37.319Z,1004.28
2016-06-30T01:30:37.303Z,1004.25
2016-06-30T01:31:37.286Z,1004.27
2016-06-30T01:32:37.268Z,1004.25
2016-06-30T01:33:37.262Z,1004.21
2016-06-30T01:34:37.243Z,1004.24
2016-06-30T01:35:37.232Z,1004.28
2016-06-30T01:36:37.214Z,1004.23
2016-06-30T01:37:37.205Z,1004.22
2016-06-30T01:38:37.180Z,1004.22
2016-06-30T01:39:37.170Z,1004.24
2016-06-30T01:40:37.173Z,1004.21
2016-06-30T01:41:37.145Z,1004.2
2016-06-30T01:42:37.130Z,1004.2
2016-06-30T01:43:37.111Z,1004.2
2016-06-30T01:44:37.090Z,1004.17
2016-06-30T01:45:37.084Z,1004.2
2016-06-30T01:46:37.077Z,1004.21
2016-06-30T01:47:37.048Z,1004.22
2016-06-30T01:48:37.037Z,1004.27
2016-06-30T01:49:37.030Z,1004.22
2016-06-30T01:50:37.012Z,1004.24
2016-06-30T01:51:36.996Z,1004.24
2016-06-30T01:52:36.980Z,1004.23
2016-06-30T01:53:36.968Z,1004.18
2016-06-30T01:54:36.956Z,1004.24
2016-06-30T01:55:36.934Z,1004.29
2016-06-30T01:56:36.923Z,1004.31
2016-06-30T01:57:36.904Z,1004.26
2016-06-30T01:58:36.890Z,1004.27
2016-06-30T01:59:36.878Z,1004.27
2016-06-30T02:00:36.879Z,1004.26
2016-06-30T02:01:36.840Z,1004.3
2016-06-30T02:02:36.831Z,1004.3
2016-06-30T02:03:36.817Z,1004.29
2016-06-30T02:04:36.802Z,1004.27
2016-06-30T02:05:36.781Z,1004.29
2016-06-30T02:06:36.786Z,1004.29
2016-06-30T02:07:36.758Z,1004.36
2016-06-30T02:08:36.741Z,1004.33
2016-06-30T02:09:36.727Z,1004.32
2016-06-30T02:10:36.712Z,1004.33
2016-06-30T02:11:36.695Z,1004.29
2016-06-30T02:12:36.687Z,1004.32
2016-06-30T02:13:36.669Z,1004.36
2016-06-30T02:14:36.651Z,1004.34
2016-06-30T02:15:36.635Z,1004.33
2016-06-30T02:16:36.621Z,1004.33
2016-06-30T02:17:36.611Z,1004.32
2016-06-30T02:18:36.593Z,1004.34
2016-06-30T02:19:36.582Z,1004.31
2016-06-30T02:20:36.568Z,1004.35
2016-06-30T02:21:36.548Z,1004.39
2016-06-30T02:22:36.538Z,1004.38
2016-06-30T02:23:36.520Z,1004.35
2016-06-30T02:24:36.508Z,1004.33
2016-06-30T02:25:36.490Z,1004.36
2016-06-30T02:26:36.480Z,1004.36
2016-06-30T02:27:36.473Z,1004.36
2016-06-30T02:28:36.448Z,1004.33
2016-06-30T02:29:36.428Z,1004.4
2016-06-30T02:30:36.419Z,1004.39
2016-06-30T02:31:36.405Z,1004.4
2016-06-30T02:32:36.390Z,1004.4
2016-06-30T02:33:36.374Z,1004.42
2016-06-30T02:34:36.360Z,1004.39
2016-06-30T02:35:36.344Z,1004.39
2016-06-30T02:36:36.326Z,1004.37
2016-06-30T02:37:36.309Z,1004.38
2016-06-30T02:38:36.302Z,1004.45
2016-06-30T02:39:36.289Z,1004.41
2016-06-30T02:40:36.267Z,1004.37
2016-06-30T02:41:36.253Z,1004.37
2016-06-30T02:42:36.236Z,1004.33
2016-06-30T02:43:36.229Z,1004.34
2016-06-30T02:44:36.212Z,1004.3
2016-06-30T02:45:36.196Z,1004.28
2016-06-30T02:46:36.181Z,1004.29
2016-06-30T02:47:36.163Z,1004.32
2016-06-30T02:48:36.154Z,1004.27
2016-06-30T02:49:36.132Z,1004.3
2016-06-30T02:50:36.123Z,1004.32
2016-06-30T02:51:36.103Z,1004.34
2016-06-30T02:52:36.089Z,1004.37
2016-06-30T02:53:36.078Z,1004.37
2016-06-30T02:54:36.068Z,1004.38
2016-06-30T02:55:36.046Z,1004.43
2016-06-30T02:56:36.035Z,1004.4
2016-06-30T02:57:36.013Z,1004.44
2016-06-30T02:58:36.002Z,1004.46
2016-06-30T02:59:35.990Z,1004.48
2016-06-30T03:00:35.974Z,1004.48
2016-06-30T03:01:35.971Z,1004.48
2016-06-30T03:02:35.948Z,1004.46
2016-06-30T03:03:35.927Z,1004.5
2016-06-30T03:04:35.918Z,1004.47
2016-06-30T03:05:35.899Z,1004.45
2016-06-30T03:06:35.883Z,1004.47
2016-06-30T03:07:35.868Z,1004.48
2016-06-30T03:08:35.855Z,1004.46
2016-06-30T03:09:35.839Z,1004.49
2016-06-30T03:10:35.826Z,1004.5
2016-06-30T03:11:35.809Z,1004.49
2016-06-30T03:12:35.797Z,1004.45
2016-06-30T03:13:35.780Z,1004.47
2016-06-30T03:14:35.769Z,1004.45
2016-06-30T03:15:35.753Z,1004.47
2016-06-30T03:16:35.743Z,1004.46
2016-06-30T03:17:35.722Z,1004.49
2016-06-30T03:18:35.717Z,1004.44
2016-06-30T03:19:35.691Z,1004.53
2016-06-30T03:20:35.682Z,1004.53
2016-06-30T03:21:35.737Z,1004.53
2016-06-30T03:22:35.654Z,1004.53
2016-06-30T03:23:35.682Z,1004.56
2016-06-30T03:24:35.618Z,1004.57
2016-06-30T03:25:35.602Z,1004.57
2016-06-30T03:26:35.588Z,1004.57
2016-06-30T03:27:35.578Z,1004.6
2016-06-30T03:28:35.558Z,1004.57
2016-06-30T03:29:35.549Z,1004.59
2016-06-30T03:30:35.545Z,1004.56
2016-06-30T03:31:35.522Z,1004.6
2016-06-30T03:32:35.500Z,1004.61
2016-06-30T03:33:35.493Z,1004.59
2016-06-30T03:34:35.478Z,1004.63
2016-06-30T03:35:35.459Z,1004.64
2016-06-30T03:36:35.447Z,1004.62
2016-06-30T03:37:35.430Z,1004.62
2016-06-30T03:38:35.411Z,1004.66
2016-06-30T03:39:35.401Z,1004.66
2016-06-30T03:40:35.390Z,1004.67
2016-06-30T03:41:35.366Z,1004.64
2016-06-30T03:42:35.350Z,1004.67
2016-06-30T03:43:35.337Z,1004.63
2016-06-30T03:44:35.322Z,1004.67
2016-06-30T03:45:35.309Z,1004.68
2016-06-30T03:46:35.295Z,1004.78
2016-06-30T03:47:35.280Z,1004.73
2016-06-30T03:48:35.265Z,1004.77
2016-06-30T03:49:35.247Z,1004.78
2016-06-30T03:50:35.234Z,1004.76
2016-06-30T03:51:35.218Z,1004.83
2016-06-30T03:52:35.205Z,1004.79
2016-06-30T03:53:35.190Z,1004.76
2016-06-30T03:54:35.170Z,1004.79
2016-06-30T03:55:35.161Z,1004.79
2016-06-30T03:56:35.147Z,1004.79
2016-06-30T03:57:35.136Z,1004.81
2016-06-30T03:58:35.112Z,1004.82
2016-06-30T03:59:35.104Z,1004.83
2016-06-30T04:00:35.098Z,1004.86
2016-06-30T04:01:35.072Z,1004.89
2016-06-30T04:02:35.053Z,1004.85
2016-06-30T04:03:35.039Z,1004.92
2016-06-30T04:04:35.033Z,1004.9
2016-06-30T04:05:35.016Z,1004.9
2016-06-30T04:06:34.998Z,1004.91
2016-06-30T04:07:34.981Z,1004.88
2016-06-30T04:08:34.965Z,1004.89
2016-06-30T04:09:34.952Z,1004.94
2016-06-30T04:10:34.940Z,1004.97
2016-06-30T04:11:34.926Z,1004.91
2016-06-30T04:12:34.907Z,1004.94
2016-06-30T04:13:34.898Z,1004.96
2016-06-30T04:14:34.878Z,1005
2016-06-30T04:15:34.863Z,1004.97
2016-06-30T04:16:34.849Z,1004.98
2016-06-30T04:17:34.834Z,1004.99
2016-06-30T04:18:34.818Z,1004.97
2016-06-30T04:19:34.801Z,1005.02
2016-06-30T04:20:34.794Z,1005.02
2016-06-30T04:21:34.778Z,1005.05
2016-06-30T04:22:34.761Z,1005.02
2016-06-30T04:23:34.745Z,1005.01
2016-06-30T04:24:34.729Z,1005.08
2016-06-30T04:25:34.727Z,1005.06
2016-06-30T04:26:34.698Z,1005.09
2016-06-30T04:27:34.689Z,1005.09
2016-06-30T04:28:34.670Z,1005.13
2016-06-30T04:29:34.659Z,1005.14
2016-06-30T04:30:34.648Z,1005.14
2016-06-30T04:31:34.629Z,1005.13
2016-06-30T04:32:34.613Z,1005.13
2016-06-30T04:33:34.614Z,1005.15
2016-06-30T04:34:34.586Z,1005.15
2016-06-30T04:35:34.575Z,1005.16
2016-06-30T04:36:34.556Z,1005.19
2016-06-30T04:37:34.546Z,1005.18
2016-06-30T04:38:34.527Z,1005.19
2016-06-30T04:39:34.513Z,1005.22
2016-06-30T04:40:34.498Z,1005.18
2016-06-30T04:41:34.479Z,1005.23
2016-06-30T04:42:34.469Z,1005.25
2016-06-30T04:43:34.450Z,1005.28
2016-06-30T04:44:34.462Z,1005.33
2016-06-30T04:45:34.418Z,1005.37
2016-06-30T04:46:34.413Z,1005.29
2016-06-30T04:47:34.393Z,1005.31
2016-06-30T04:48:34.379Z,1005.34
2016-06-30T04:49:34.367Z,1005.3
2016-06-30T04:50:34.350Z,1005.29
2016-06-30T04:51:34.339Z,1005.3
2016-06-30T04:52:34.317Z,1005.29
2016-06-30T04:53:34.317Z,1005.29
2016-06-30T04:54:34.286Z,1005.28
2016-06-30T04:55:34.289Z,1005.28
2016-06-30T04:56:34.264Z,1005.33
2016-06-30T04:57:34.245Z,1005.33
2016-06-30T04:58:34.233Z,1005.39
2016-06-30T04:59:34.210Z,1005.33
2016-06-30T05:00:34.200Z,1005.29
2016-06-30T05:01:34.187Z,1005.26
2016-06-30T05:02:34.171Z,1005.26
2016-06-30T05:03:34.154Z,1005.27
2016-06-30T05:04:34.139Z,1005.24
2016-06-30T05:05:34.125Z,1005.26
2016-06-30T05:06:34.121Z,1005.23
2016-06-30T05:07:34.095Z,1005.28
2016-06-30T05:08:34.089Z,1005.33
2016-06-30T05:09:34.068Z,1005.32
2016-06-30T05:10:34.049Z,1005.31
2016-06-30T05:11:34.036Z,1005.31
2016-06-30T05:12:34.026Z,1005.33
2016-06-30T05:13:34.009Z,1005.34
2016-06-30T05:14:33.998Z,1005.31
2016-06-30T05:15:33.981Z,1005.31
2016-06-30T05:16:33.963Z,1005.27
2016-06-30T05:17:33.950Z,1005.29
2016-06-30T05:18:33.934Z,1005.32
2016-06-30T05:19:33.917Z,1005.26
2016-06-30T05:20:33.909Z,1005.32
2016-06-30T05:21:33.892Z,1005.34
2016-06-30T05:22:33.876Z,1005.32
2016-06-30T05:23:33.867Z,1005.36
2016-06-30T05:24:33.847Z,1005.36
2016-06-30T05:25:33.827Z,1005.36
2016-06-30T05:26:33.822Z,1005.36
2016-06-30T05:27:33.803Z,1005.38
2016-06-30T05:28:33.789Z,1005.38
2016-06-30T05:29:33.778Z,1005.35
2016-06-30T05:30:33.758Z,1005.34
2016-06-30T05:31:33.745Z,1005.32
2016-06-30T05:32:33.731Z,1005.29
2016-06-30T05:33:33.710Z,1005.3
2016-06-30T05:34:33.694Z,1005.38
2016-06-30T05:35:33.706Z,1005.37
2016-06-30T05:36:33.683Z,1005.38
2016-06-30T05:37:33.657Z,1005.36
2016-06-30T05:38:33.641Z,1005.36
2016-06-30T05:39:33.623Z,1005.36
2016-06-30T05:40:33.608Z,1005.35
2016-06-30T05:41:33.600Z,1005.38
2016-06-30T05:42:33.582Z,1005.37
2016-06-30T05:43:33.563Z,1005.39
2016-06-30T05:44:33.548Z,1005.39
2016-06-30T05:45:33.537Z,1005.39
2016-06-30T05:46:33.521Z,1005.35
2016-06-30T05:47:33.506Z,1005.35
2016-06-30T05:48:33.492Z,1005.37
2016-06-30T05:49:33.481Z,1005.39
2016-06-30T05:50:33.462Z,1005.36
2016-06-30T05:51:33.444Z,1005.36
2016-06-30T05:52:33.445Z,1005.33
2016-06-30T05:53:33.414Z,1005.35
2016-06-30T05:54:33.397Z,1005.38
2016-06-30T05:55:33.389Z,1005.42
2016-06-30T05:56:33.369Z,1005.43
2016-06-30T05:57:33.358Z,1005.39
2016-06-30T05:58:33.346Z,1005.44
2016-06-30T05:59:33.334Z,1005.44
2016-06-30T06:00:33.308Z,1005.43
2016-06-30T06:01:33.298Z,1005.47
2016-06-30T06:02:33.289Z,1005.44
2016-06-30T06:03:33.270Z,1005.47
2016-06-30T06:04:33.265Z,1005.46
2016-06-30T06:05:33.240Z,1005.47
2016-06-30T06:06:33.247Z,1005.46
2016-06-30T06:07:33.212Z,1005.49
2016-06-30T06:08:33.197Z,1005.48
2016-06-30T06:09:33.204Z,1005.53
2016-06-30T06:10:33.169Z,1005.53
2016-06-30T06:11:33.151Z,1005.54
2016-06-30T06:12:33.138Z,1005.53
2016-06-30T06:13:33.121Z,1005.56
2016-06-30T06:14:33.104Z,1005.6
2016-06-30T06:15:33.094Z,1005.55
2016-06-30T06:16:33.085Z,1005.62
2016-06-30T06:17:33.058Z,1005.53
2016-06-30T06:18:33.054Z,1005.53
2016-06-30T06:19:33.035Z,1005.56
2016-06-30T06:20:33.017Z,1005.6
2016-06-30T06:21:33.004Z,1005.55
2016-06-30T06:22:33.015Z,1005.54
2016-06-30T06:23:32.983Z,1005.58
2016-06-30T06:24:32.962Z,1005.57
2016-06-30T06:25:32.943Z,1005.57
2016-06-30T06:26:32.932Z,1005.51
2016-06-30T06:27:32.914Z,1005.51
2016-06-30T06:28:32.898Z,1005.48
2016-06-30T06:29:32.888Z,1005.48
2016-06-30T06:30:32.867Z,1005.5
2016-06-30T06:31:32.855Z,1005.52
2016-06-30T06:32:32.839Z,1005.52
2016-06-30T06:33:32.818Z,1005.47
2016-06-30T06:34:32.807Z,1005.49
2016-06-30T06:35:32.794Z,1005.5
2016-06-30T06:36:32.777Z,1005.52
2016-06-30T06:37:32.764Z,1005.56
2016-06-30T06:38:32.750Z,1005.46
2016-06-30T06:39:32.729Z,1005.47
2016-06-30T06:40:32.717Z,1005.46
2016-06-30T06:41:32.706Z,1005.5
2016-06-30T06:42:32.686Z,1005.62
2016-06-30T06:43:32.675Z,1005.59
2016-06-30T06:44:32.665Z,1005.64
2016-06-30T06:45:32.641Z,1005.67
2016-06-30T06:46:32.624Z,1005.65
2016-06-30T06:47:32.610Z,1005.66
2016-06-30T06:48:32.594Z,1005.65
2016-06-30T06:49:32.578Z,1005.62
2016-06-30T06:50:32.565Z,1005.63
2016-06-30T06:51:32.552Z,1005.59
2016-06-30T06:52:32.540Z,1005.63
2016-06-30T06:53:32.516Z,1005.63
2016-06-30T06:54:32.508Z,1005.65
2016-06-30T06:55:32.489Z,1005.6
2016-06-30T06:56:32.475Z,1005.68
2016-06-30T06:57:32.453Z,1005.66
2016-06-30T06:58:32.443Z,1005.67
2016-06-30T06:59:32.426Z,1005.67
2016-06-30T07:00:32.413Z,1005.65
2016-06-30T07:01:32.397Z,1005.66
2016-06-30T07:02:32.380Z,1005.68
2016-06-30T07:03:32.362Z,1005.66
2016-06-30T07:04:32.349Z,1005.7
2016-06-30T07:05:32.343Z,1005.7
2016-06-30T07:06:32.318Z,1005.67
2016-06-30T07:07:32.305Z,1005.69
2016-06-30T07:08:32.289Z,1005.7
2016-06-30T07:09:32.269Z,1005.68
2016-06-30T07:10:32.257Z,1005.68
2016-06-30T07:11:32.247Z,1005.62
2016-06-30T07:12:32.230Z,1005.68
2016-06-30T07:13:32.210Z,1005.69
2016-06-30T07:14:32.197Z,1005.66
2016-06-30T07:15:32.181Z,1005.64
2016-06-30T07:16:32.173Z,1005.68
2016-06-30T07:17:32.155Z,1005.71
2016-06-30T07:18:32.139Z,1005.69
2016-06-30T07:19:32.126Z,1005.69
2016-06-30T07:20:32.106Z,1005.75
2016-06-30T07:21:32.095Z,1005.72
2016-06-30T07:22:32.084Z,1005.71
2016-06-30T07:23:32.066Z,1005.74
2016-06-30T07:24:32.053Z,1005.74
2016-06-30T07:25:32.030Z,1005.71
2016-06-30T07:26:32.014Z,1005.71
2016-06-30T07:27:32.006Z,1005.77
2016-06-30T07:28:31.985Z,1005.77
2016-06-30T07:29:31.972Z,1005.84
2016-06-30T07:30:31.958Z,1005.81
2016-06-30T07:31:31.942Z,1005.77
2016-06-30T07:32:31.927Z,1005.77
2016-06-30T07:33:31.910Z,1005.77
2016-06-30T07:34:31.894Z,1005.83
2016-06-30T07:35:31.895Z,1005.86
2016-06-30T07:36:31.867Z,1005.85
2016-06-30T07:37:31.849Z,1005.84
2016-06-30T07:38:31.845Z,1005.84
2016-06-30T07:39:31.827Z,1005.83
2016-06-30T07:40:31.804Z,1005.83
2016-06-30T07:41:31.792Z,1005.86
2016-06-30T07:42:31.777Z,1005.88
2016-06-30T07:43:31.762Z,1005.87
2016-06-30T07:44:31.748Z,1005.86
2016-06-30T07:45:31.737Z,1005.91
2016-06-30T07:46:31.725Z,1005.86
2016-06-30T07:47:31.698Z,1005.87
2016-06-30T07:48:31.690Z,1005.89
2016-06-30T07:49:31.679Z,1005.91
2016-06-30T07:50:31.657Z,1005.87
2016-06-30T07:51:31.647Z,1005.93
2016-06-30T07:52:31.627Z,1005.96
2016-06-30T07:53:31.614Z,1005.87
2016-06-30T07:54:31.596Z,1005.89
2016-06-30T07:55:31.581Z,1005.93
2016-06-30T07:56:31.570Z,1005.89
2016-06-30T07:57:31.554Z,1005.95
2016-06-30T07:58:31.538Z,1005.91
2016-06-30T07:59:31.524Z,1005.92
2016-06-30T08:00:31.510Z,1005.98
2016-06-30T08:01:31.494Z,1005.99
2016-06-30T08:02:31.483Z,1005.94
2016-06-30T08:03:31.467Z,1006.01
2016-06-30T08:04:31.460Z,1005.99
2016-06-30T08:05:31.436Z,1006
2016-06-30T08:06:31.415Z,1005.97
2016-06-30T08:07:31.406Z,1006
2016-06-30T08:08:31.396Z,1005.98
2016-06-30T08:09:31.377Z,1006.01
2016-06-30T08:10:31.361Z,1006.01
2016-06-30T08:11:31.355Z,1006.09
2016-06-30T08:12:31.331Z,1006
2016-06-30T08:13:31.321Z,1006.06
2016-06-30T08:14:31.304Z,1006.05
2016-06-30T08:15:31.296Z,1006.07
2016-06-30T08:16:31.277Z,1006.08
2016-06-30T08:17:31.257Z,1006.03
2016-06-30T08:18:31.239Z,1006.08
2016-06-30T08:19:31.225Z,1006.02
2016-06-30T08:20:31.215Z,1006.02
2016-06-30T08:21:31.198Z,1006
2016-06-30T08:22:31.183Z,1006.02
2016-06-30T08:23:31.170Z,1005.99
2016-06-30T08:24:31.162Z,1006.01
2016-06-30T08:25:31.136Z,1006.01
2016-06-30T08:26:31.129Z,1006.02
2016-06-30T08:27:31.112Z,1005.98
2016-06-30T08:28:31.089Z,1006
2016-06-30T08:29:31.081Z,1005.94
2016-06-30T08:30:31.066Z,1005.95
2016-06-30T08:31:31.051Z,1005.95
2016-06-30T08:32:31.035Z,1006
2016-06-30T08:33:31.016Z,1005.97
2016-06-30T08:34:31.002Z,1006.03
2016-06-30T08:35:31.009Z,1006.01
2016-06-30T08:36:30.974Z,1006
2016-06-30T08:37:30.957Z,1006.03
2016-06-30T08:38:30.936Z,1006
2016-06-30T08:39:30.923Z,1006
2016-06-30T08:40:30.913Z,1006.02
2016-06-30T08:41:30.901Z,1006.02
2016-06-30T08:42:30.875Z,1006.06
2016-06-30T08:43:30.872Z,1006.05
2016-06-30T08:44:30.846Z,1006.03
2016-06-30T08:45:30.836Z,1006.01
2016-06-30T08:46:30.813Z,1006.04
2016-06-30T08:47:30.805Z,1006.02
2016-06-30T08:48:30.787Z,1006
2016-06-30T08:49:30.787Z,1006.04
2016-06-30T08:50:30.759Z,1006.07
2016-06-30T08:51:30.741Z,1006.1
2016-06-30T08:52:30.725Z,1006.06
2016-06-30T08:53:30.710Z,1006.1
2016-06-30T08:54:30.698Z,1006.14
2016-06-30T08:55:30.691Z,1006.08
2016-06-30T08:56:30.668Z,1006.14
2016-06-30T08:57:30.672Z,1006.09
2016-06-30T08:58:30.635Z,1006.08
2016-06-30T08:59:30.623Z,1006.08
2016-06-30T09:00:30.608Z,1006.11
2016-06-30T09:01:30.614Z,1006.11
2016-06-30T09:02:30.571Z,1006.12
2016-06-30T09:03:30.559Z,1006.13
2016-06-30T09:04:30.546Z,1006.14
2016-06-30T09:05:30.533Z,1006.15
2016-06-30T09:06:30.517Z,1006.08
2016-06-30T09:07:30.511Z,1006.09
2016-06-30T09:08:30.497Z,1006.04
2016-06-30T09:09:30.471Z,1006.03
2016-06-30T09:10:30.464Z,1006.01
2016-06-30T09:11:30.447Z,1006.01
2016-06-30T09:12:30.431Z,1006.04
2016-06-30T09:13:30.414Z,1006.05
2016-06-30T09:14:30.402Z,1006.04
2016-06-30T09:15:30.382Z,1006.05
2016-06-30T09:16:30.367Z,1006.08
2016-06-30T09:17:30.358Z,1006.1
2016-06-30T09:18:30.341Z,1006.09
2016-06-30T09:19:30.320Z,1006.1
2016-06-30T09:20:30.313Z,1006.06
2016-06-30T09:21:30.298Z,1006.09
2016-06-30T09:22:30.289Z,1006.02
2016-06-30T09:23:30.282Z,1006.08
2016-06-30T09:24:30.252Z,1006.02
2016-06-30T09:25:30.238Z,1006.06
2016-06-30T09:26:30.221Z,1006.06
2016-06-30T09:27:30.205Z,1006.06
2016-06-30T09:28:30.192Z,1006.03
2016-06-30T09:29:30.183Z,1005.99
2016-06-30T09:30:30.176Z,1006.05
2016-06-30T09:31:30.144Z,1006.07
2016-06-30T09:32:30.134Z,1006.1
2016-06-30T09:33:30.120Z,1006.13
2016-06-30T09:34:30.124Z,1006.16
2016-06-30T09:35:30.100Z,1006.21
2016-06-30T09:36:30.076Z,1006.21
2016-06-30T09:37:30.062Z,1006.18
2016-06-30T09:38:30.047Z,1006.17
2016-06-30T09:39:30.031Z,1006.24
2016-06-30T09:40:30.019Z,1006.19
2016-06-30T09:41:30.003Z,1006.2
2016-06-30T09:42:29.986Z,1006.22
2016-06-30T09:43:29.974Z,1006.24
2016-06-30T09:44:29.958Z,1006.28
2016-06-30T09:45:29.937Z,1006.27
2016-06-30T09:46:29.923Z,1006.29
2016-06-30T09:47:29.918Z,1006.3
2016-06-30T09:48:29.898Z,1006.29
2016-06-30T09:49:29.886Z,1006.31
2016-06-30T09:50:29.869Z,1006.32
2016-06-30T09:51:29.851Z,1006.29
2016-06-30T09:52:29.841Z,1006.27
2016-06-30T09:53:29.822Z,1006.26
2016-06-30T09:54:29.806Z,1006.3
2016-06-30T09:55:29.804Z,1006.29
2016-06-30T09:56:29.783Z,1006.29
2016-06-30T09:57:29.773Z,1006.33
2016-06-30T09:58:29.753Z,1006.34
2016-06-30T09:59:29.732Z,1006.29
2016-06-30T10:00:29.725Z,1006.35
2016-06-30T10:01:29.707Z,1006.3
2016-06-30T10:02:29.695Z,1006.26
2016-06-30T10:03:29.674Z,1006.27
2016-06-30T10:04:29.667Z,1006.24
2016-06-30T10:05:29.648Z,1006.31
2016-06-30T10:06:29.638Z,1006.31
2016-06-30T10:07:29.617Z,1006.28
2016-06-30T10:08:29.603Z,1006.29
2016-06-30T10:09:29.588Z,1006.34
2016-06-30T10:10:29.574Z,1006.31
2016-06-30T10:11:29.557Z,1006.23
2016-06-30T10:12:29.542Z,1006.29
2016-06-30T10:13:29.527Z,1006.28
2016-06-30T10:14:29.514Z,1006.34
2016-06-30T10:15:29.498Z,1006.38
2016-06-30T10:16:29.485Z,1006.27
2016-06-30T10:17:29.471Z,1006.31
2016-06-30T10:18:29.455Z,1006.3
2016-06-30T10:19:29.443Z,1006.38
2016-06-30T10:20:29.426Z,1006.33
2016-06-30T10:21:29.412Z,1006.31
2016-06-30T10:22:29.400Z,1006.34
2016-06-30T10:23:29.379Z,1006.42
2016-06-30T10:24:29.366Z,1006.38
2016-06-30T10:25:29.354Z,1006.4
2016-06-30T10:26:29.338Z,1006.44
2016-06-30T10:27:29.335Z,1006.49
2016-06-30T10:28:29.306Z,1006.45
2016-06-30T10:29:29.301Z,1006.48
2016-06-30T10:30:29.274Z,1006.54
2016-06-30T10:31:29.264Z,1006.59
2016-06-30T10:32:29.248Z,1006.53
2016-06-30T10:33:29.231Z,1006.58
2016-06-30T10:34:29.225Z,1006.52
2016-06-30T10:35:29.207Z,1006.55
2016-06-30T10:36:29.191Z,1006.57
2016-06-30T10:37:29.172Z,1006.59
2016-06-30T10:38:29.161Z,1006.56
2016-06-30T10:39:29.148Z,1006.58
2016-06-30T10:40:29.131Z,1006.57
2016-06-30T10:41:29.119Z,1006.61
2016-06-30T10:42:29.105Z,1006.6
2016-06-30T10:43:29.078Z,1006.58
2016-06-30T10:44:29.068Z,1006.59
2016-06-30T10:45:29.066Z,1006.64
2016-06-30T10:46:29.039Z,1006.64
2016-06-30T10:47:29.024Z,1006.64
2016-06-30T10:48:29.003Z,1006.59
2016-06-30T10:49:29.011Z,1006.57
2016-06-30T10:50:28.974Z,1006.58
2016-06-30T10:51:28.963Z,1006.56
2016-06-30T10:52:28.995Z,1006.53
2016-06-30T10:53:28.953Z,1006.54
2016-06-30T10:54:28.919Z,1006.59
2016-06-30T10:55:28.903Z,1006.54
2016-06-30T10:56:28.886Z,1006.61
2016-06-30T10:57:28.871Z,1006.5
2016-06-30T10:58:28.858Z,1006.56
2016-06-30T10:59:28.895Z,1006.55
2016-06-30T11:00:28.830Z,1006.56
2016-06-30T11:01:28.812Z,1006.59
2016-06-30T11:02:28.805Z,1006.58
2016-06-30T11:03:28.784Z,1006.67
2016-06-30T11:04:28.775Z,1006.6
2016-06-30T11:05:28.754Z,1006.58
2016-06-30T11:06:28.763Z,1006.63
2016-06-30T11:07:28.724Z,1006.63
2016-06-30T11:08:28.709Z,1006.65
2016-06-30T11:09:28.693Z,1006.56
2016-06-30T11:10:28.683Z,1006.59
2016-06-30T11:11:28.666Z,1006.58
2016-06-30T11:12:28.649Z,1006.59
2016-06-30T11:13:28.634Z,1006.54
2016-06-30T11:14:28.618Z,1006.59
2016-06-30T11:15:28.610Z,1006.63
2016-06-30T11:16:28.587Z,1006.65
2016-06-30T11:17:28.588Z,1006.69
2016-06-30T11:18:28.558Z,1006.64
2016-06-30T11:19:28.540Z,1006.61
2016-06-30T11:20:28.530Z,1006.71
2016-06-30T11:21:28.515Z,1006.58
2016-06-30T11:22:28.497Z,1006.6
2016-06-30T11:23:28.485Z,1006.63
2016-06-30T11:24:28.469Z,1006.63
2016-06-30T11:25:28.455Z,1006.64
2016-06-30T11:26:28.446Z,1006.62
2016-06-30T11:27:28.431Z,1006.65
2016-06-30T11:28:28.410Z,1006.65
2016-06-30T11:29:28.398Z,1006.67
2016-06-30T11:30:28.378Z,1006.62
2016-06-30T11:31:28.363Z,1006.63
2016-06-30T11:32:28.346Z,1006.63
2016-06-30T11:33:28.338Z,1006.65
2016-06-30T11:34:28.319Z,1006.62
2016-06-30T11:35:28.305Z,1006.67
2016-06-30T11:36:28.290Z,1006.69
2016-06-30T11:37:28.315Z,1006.69
2016-06-30T11:38:28.262Z,1006.73
2016-06-30T11:39:28.247Z,1006.69
2016-06-30T11:40:28.229Z,1006.7
2016-06-30T11:41:28.219Z,1006.71
2016-06-30T11:42:28.199Z,1006.72
2016-06-30T11:43:28.182Z,1006.7
2016-06-30T11:44:28.166Z,1006.66
2016-06-30T11:45:28.151Z,1006.66
2016-06-30T11:46:28.135Z,1006.71
2016-06-30T11:47:28.126Z,1006.65
2016-06-30T11:48:28.114Z,1006.67
2016-06-30T11:49:28.100Z,1006.61
2016-06-30T11:50:28.077Z,1006.61
2016-06-30T11:51:28.076Z,1006.68
2016-06-30T11:52:28.062Z,1006.68
2016-06-30T11:53:28.055Z,1006.69
2016-06-30T11:54:28.022Z,1006.71
2016-06-30T11:55:28.013Z,1006.76
2016-06-30T11:56:27.986Z,1006.76
2016-06-30T11:57:27.971Z,1006.75
2016-06-30T11:58:27.963Z,1006.74
2016-06-30T11:59:27.944Z,1006.76
2016-06-30T12:00:27.933Z,1006.82
2016-06-30T12:01:27.921Z,1006.78
2016-06-30T12:02:27.902Z,1006.84
2016-06-30T12:03:27.883Z,1006.84
2016-06-30T12:04:27.871Z,1006.84
2016-06-30T12:05:27.853Z,1006.95
2016-06-30T12:06:27.847Z,1006.9
2016-06-30T12:07:27.831Z,1006.84
2016-06-30T12:08:27.811Z,1006.87